Time;durP1;ratioP1;P1;durP2;ratioP2;P2;SDS_P1;SDS_P2;PMS_P1;PMS_P2;Temp;Humidity;BMP_temperature;BMP_pressure;BME280_temperature;BME280_humidity;BME280_pressure;Samples;Min_cycle;Max_cycle;Signal;HPM_P1;HPM_P2
2023/09/24 00:01:42;;;;;;;6.37;2.60;;;11.00;98.00;;;;;;5031071;28;20448;-71
2023/09/24 00:04:10;;;;;;;8.00;3.03;;;11.00;98.00;;;;;;5031190;28;20492;-72
2023/09/24 00:06:38;;;;;;;4.17;2.80;;;11.00;98.00;;;;;;5031554;28;20491;-71
2023/09/24 00:09:05;;;;;;;6.00;3.03;;;11.10;98.00;;;;;;5031381;28;20495;-70
2023/09/24 00:11:41;;;;;;;4.00;2.53;;;11.20;98.00;;;;;;5030179;28;20449;-71
2023/09/24 00:14:10;;;;;;;3.20;2.23;;;11.20;98.00;;;;;;5032470;28;20443;-71
2023/09/24 00:16:39;;;;;;;4.80;2.70;;;11.20;98.00;;;;;;5034018;28;20461;-71
2023/09/24 00:19:06;;;;;;;5.60;2.77;;;11.30;98.00;;;;;;5035122;28;20539;-72
2023/09/24 00:21:33;;;;;;;3.80;2.50;;;11.20;98.00;;;;;;5035206;28;20457;-71
2023/09/24 00:24:00;;;;;;;4.00;2.60;;;11.00;98.00;;;;;;5034704;28;20492;-71
2023/09/24 00:26:28;;;;;;;3.30;2.37;;;10.80;98.00;;;;;;5035017;28;20960;-70
2023/09/24 00:28:56;;;;;;;4.63;3.10;;;10.80;98.00;;;;;;5034859;28;20449;-71
2023/09/24 00:31:25;;;;;;;3.93;2.73;;;10.80;98.00;;;;;;5035121;28;20508;-70
2023/09/24 00:33:54;;;;;;;5.23;2.70;;;10.70;98.00;;;;;;5034818;28;20457;-71
2023/09/24 00:36:21;;;;;;;4.57;2.97;;;10.60;98.00;;;;;;5034996;28;20469;-71
2023/09/24 00:38:49;;;;;;;5.07;2.77;;;10.50;98.00;;;;;;5034761;28;20554;-71
2023/09/24 00:41:16;;;;;;;4.50;2.70;;;10.40;98.00;;;;;;5034912;28;20453;-72
2023/09/24 00:43:44;;;;;;;2.80;2.20;;;10.40;98.00;;;;;;5034632;28;21024;-71
2023/09/24 00:46:13;;;;;;;4.67;2.50;;;10.50;98.00;;;;;;5034798;28;20550;-72
2023/09/24 00:48:43;;;;;;;5.00;2.80;;;10.50;98.00;;;;;;5034666;28;20475;-71
2023/09/24 00:51:17;;;;;;;4.03;2.50;;;10.40;98.00;;;;;;5034732;28;20452;-71
2023/09/24 00:53:46;;;;;;;5.47;2.90;;;10.40;98.00;;;;;;5034715;28;20882;-71
2023/09/24 00:56:14;;;;;;;5.97;2.70;;;10.30;98.00;;;;;;5034325;28;20983;-72
2023/09/24 00:58:47;;;;;;;4.80;2.70;;;10.30;98.00;;;;;;5033261;28;20462;-71
2023/09/24 01:01:14;;;;;;;4.20;2.77;;;10.40;98.00;;;;;;5034501;28;20454;-72
2023/09/24 01:03:41;;;;;;;4.30;2.80;;;10.40;98.00;;;;;;5034470;28;20860;-71
2023/09/24 01:06:08;;;;;;;3.90;2.73;;;10.30;98.00;;;;;;5034397;28;20453;-71
2023/09/24 01:08:37;;;;;;;3.50;2.43;;;10.40;98.00;;;;;;5034201;28;20954;-71
2023/09/24 01:11:05;;;;;;;5.47;2.87;;;10.50;98.00;;;;;;5034453;28;20447;-70
2023/09/24 01:13:40;;;;;;;8.83;3.17;;;10.70;98.00;;;;;;5034140;28;20451;-71
2023/09/24 01:16:07;;;;;;;3.90;2.50;;;10.60;98.00;;;;;;5034439;28;20456;-72
2023/09/24 01:18:36;;;;;;;3.37;2.40;;;10.40;98.00;;;;;;5033904;28;20448;-71
2023/09/24 01:21:07;;;;;;;4.67;3.10;;;10.30;98.00;;;;;;5034480;28;20449;-72
2023/09/24 01:23:40;;;;;;;4.17;2.70;;;10.20;98.00;;;;;;5034199;28;20853;-71
2023/09/24 01:26:10;;;;;;;4.70;2.47;;;10.10;98.00;;;;;;5033280;28;20518;-71
2023/09/24 01:28:39;;;;;;;3.30;2.30;;;10.20;98.00;;;;;;5033625;28;20446;-72
2023/09/24 01:31:07;;;;;;;3.47;2.30;;;10.20;98.00;;;;;;5034360;28;20455;-71
2023/09/24 01:33:38;;;;;;;5.40;2.53;;;10.30;98.00;;;;;;5033739;28;20500;-71
2023/09/24 01:36:05;;;;;;;3.40;2.43;;;10.20;98.00;;;;;;5033773;28;20451;-71
2023/09/24 01:38:32;;;;;;;5.33;2.90;;;10.10;98.00;;;;;;5033321;28;20797;-71
2023/09/24 01:41:03;;;;;;;2.93;2.10;;;10.00;98.00;;;;;;5033662;28;20492;-71
2023/09/24 01:43:31;;;;;;;3.57;2.60;;;10.00;98.00;;;;;;5033455;28;20493;-71
2023/09/24 01:45:59;;;;;;;4.63;2.47;;;10.10;98.00;;;;;;5033516;28;20488;-71
2023/09/24 01:48:26;;;;;;;5.20;2.60;;;9.90;98.00;;;;;;5032255;28;20458;-72
2023/09/24 01:50:54;;;;;;;4.70;2.90;;;9.90;98.00;;;;;;5033459;28;20958;-72
2023/09/24 01:53:25;;;;;;;5.13;2.80;;;10.00;98.00;;;;;;5033349;28;20450;-71
2023/09/24 01:55:52;;;;;;;4.30;2.50;;;10.00;98.00;;;;;;5033275;28;20544;-70
2023/09/24 01:58:21;;;;;;;3.77;2.37;;;10.00;98.00;;;;;;5033166;28;20479;-72
2023/09/24 02:00:49;;;;;;;5.30;2.57;;;10.10;98.00;;;;;;5033279;28;20921;-72
2023/09/24 02:03:16;;;;;;;3.00;2.20;;;10.00;98.00;;;;;;5033066;28;20475;-72
2023/09/24 02:05:43;;;;;;;3.73;2.63;;;9.90;98.00;;;;;;5033162;28;20463;-71
2023/09/24 02:08:10;;;;;;;3.80;2.40;;;9.90;98.00;;;;;;5033168;28;20507;-71
2023/09/24 02:10:40;;;;;;;3.50;2.43;;;9.80;98.00;;;;;;5032993;28;20870;-71
2023/09/24 02:13:08;;;;;;;4.93;2.50;;;9.70;98.00;;;;;;5031924;28;20449;-71
2023/09/24 02:15:39;;;;;;;3.33;2.47;;;9.80;98.00;;;;;;5031804;28;20914;-73
2023/09/24 02:18:06;;;;;;;3.70;2.50;;;9.90;98.00;;;;;;5032992;28;20469;-71
2023/09/24 02:20:35;;;;;;;4.17;2.50;;;9.80;98.00;;;;;;5032931;28;20459;-71
2023/09/24 02:23:04;;;;;;;4.40;2.70;;;9.70;98.00;;;;;;5031586;28;20820;-71
2023/09/24 02:25:33;;;;;;;3.87;2.30;;;9.60;98.00;;;;;;5032649;28;20866;-72
2023/09/24 02:28:01;;;;;;;3.13;2.37;;;9.60;98.00;;;;;;5031482;28;20507;-71
2023/09/24 02:30:29;;;;;;;5.03;2.50;;;9.80;98.00;;;;;;5032820;28;20469;-70
2023/09/24 02:32:59;;;;;;;3.60;2.37;;;9.80;98.00;;;;;;5032780;28;20544;-71
2023/09/24 02:35:26;;;;;;;6.70;2.73;;;9.90;98.00;;;;;;5032684;28;20461;-71
2023/09/24 02:37:54;;;;;;;4.37;2.40;;;10.00;98.00;;;;;;5032261;28;20452;-73
2023/09/24 02:40:23;;;;;;;4.13;2.20;;;10.10;98.00;;;;;;5032479;28;20457;-73
2023/09/24 02:42:53;;;;;;;3.70;2.43;;;10.00;98.00;;;;;;5032886;28;20452;-71
2023/09/24 02:45:20;;;;;;;3.40;2.70;;;9.90;98.00;;;;;;5032653;28;20831;-71
2023/09/24 02:47:49;;;;;;;3.50;2.53;;;9.60;98.00;;;;;;5032584;28;20481;-71
2023/09/24 02:50:18;;;;;;;3.03;2.40;;;9.40;98.00;;;;;;5032651;28;20461;-71
2023/09/24 02:52:47;;;;;;;3.53;2.20;;;9.30;98.00;;;;;;5032535;28;20479;-73
2023/09/24 02:55:15;;;;;;;6.07;2.50;;;9.20;98.00;;;;;;5032553;28;20460;-71
2023/09/24 02:57:44;;;;;;;3.30;2.53;;;9.40;98.00;;;;;;5032237;28;20509;-71
2023/09/24 03:00:17;;;;;;;3.63;2.30;;;9.40;98.00;;;;;;5032413;28;20448;-71
2023/09/24 03:02:44;;;;;;;6.67;2.80;;;9.50;98.00;;;;;;5032648;28;20489;-71
2023/09/24 03:05:15;;;;;;;2.40;2.00;;;9.50;98.00;;;;;;5031218;28;20538;-71
2023/09/24 03:07:44;;;;;;;3.37;2.20;;;9.60;98.00;;;;;;5032239;28;20464;-71
2023/09/24 03:10:13;;;;;;;7.13;2.33;;;9.60;98.00;;;;;;5032267;28;20450;-73
2023/09/24 03:12:40;;;;;;;3.80;2.30;;;9.30;98.00;;;;;;5032202;28;20453;-71
2023/09/24 03:15:10;;;;;;;4.80;2.40;;;9.10;98.00;;;;;;5030724;28;20450;-72
2023/09/24 03:17:37;;;;;;;4.20;2.60;;;8.90;98.00;;;;;;5032028;28;20988;-71
2023/09/24 03:20:14;;;;;;;3.73;2.40;;;9.00;98.00;;;;;;5032052;28;20466;-71
2023/09/24 03:22:41;;;;;;;6.70;2.60;;;9.10;98.00;;;;;;5030824;28;20454;-71
2023/09/24 03:25:11;;;;;;;6.80;2.70;;;9.00;98.00;;;;;;5031426;28;20490;-71
2023/09/24 03:27:39;;;;;;;4.50;2.30;;;9.00;98.00;;;;;;5031684;28;20482;-71
2023/09/24 03:30:10;;;;;;;4.40;2.40;;;9.00;98.00;;;;;;5031849;28;20869;-72
2023/09/24 03:32:38;;;;;;;4.10;2.30;;;9.00;98.00;;;;;;5031770;28;20529;-73
2023/09/24 03:35:08;;;;;;;4.03;2.40;;;9.00;98.00;;;;;;5031535;28;20454;-70
2023/09/24 03:37:37;;;;;;;3.50;2.40;;;9.00;98.00;;;;;;5031447;28;20492;-71
2023/09/24 03:40:05;;;;;;;5.60;2.77;;;9.10;98.00;;;;;;5031819;28;20451;-71
2023/09/24 03:42:35;;;;;;;3.87;2.50;;;9.20;98.00;;;;;;5031725;28;20458;-71
2023/09/24 03:45:02;;;;;;;4.13;2.47;;;9.30;98.00;;;;;;5031518;28;20488;-71
2023/09/24 03:47:29;;;;;;;3.90;2.57;;;9.30;98.00;;;;;;5031599;28;20459;-72
2023/09/24 03:50:18;;;;;;;4.07;2.70;;;9.20;98.00;;;;;;5034279;28;20499;-71
2023/09/24 03:52:47;;;;;;;4.67;2.50;;;8.90;98.00;;;;;;5034069;28;20519;-72
2023/09/24 03:55:21;;;;;;;5.43;2.50;;;8.80;98.00;;;;;;5035736;28;20500;-71
2023/09/24 03:57:50;;;;;;;2.60;2.00;;;8.70;98.00;;;;;;5035705;28;20454;-71
2023/09/24 04:00:18;;;;;;;7.17;3.00;;;8.80;98.00;;;;;;5035619;28;20457;-72
2023/09/24 04:02:46;;;;;;;2.93;2.20;;;8.90;98.00;;;;;;5035706;28;20458;-71
2023/09/24 04:05:17;;;;;;;4.37;2.40;;;9.00;98.00;;;;;;5035500;28;20482;-72
2023/09/24 04:07:46;;;;;;;2.87;2.00;;;9.10;98.00;;;;;;5035546;28;20545;-71
2023/09/24 04:10:14;;;;;;;6.37;2.50;;;9.00;98.00;;;;;;5035514;28;20457;-71
2023/09/24 04:12:42;;;;;;;3.60;2.53;;;9.00;98.00;;;;;;5035513;28;20486;-71
2023/09/24 04:15:14;;;;;;;2.90;2.10;;;8.90;98.00;;;;;;5035430;28;20821;-72
2023/09/24 04:17:44;;;;;;;5.50;2.40;;;9.00;98.00;;;;;;5035336;28;20461;-72
2023/09/24 04:20:15;;;;;;;5.17;2.67;;;9.00;98.00;;;;;;5035122;28;20454;-70
2023/09/24 04:22:44;;;;;;;4.37;2.50;;;8.90;98.00;;;;;;5035090;28;20461;-71
2023/09/24 04:25:14;;;;;;;4.07;2.40;;;8.80;98.00;;;;;;5034550;28;20481;-71
2023/09/24 04:27:41;;;;;;;5.10;2.40;;;8.80;98.00;;;;;;5035218;28;20448;-71
2023/09/24 04:30:16;;;;;;;4.73;2.63;;;8.80;98.00;;;;;;5035145;28;20452;-71
2023/09/24 04:32:51;;;;;;;3.13;2.17;;;8.70;98.00;;;;;;5035051;28;20824;-72
2023/09/24 04:35:19;;;;;;;3.50;2.30;;;8.70;98.00;;;;;;5033979;28;20458;-71
2023/09/24 04:37:46;;;;;;;3.70;2.37;;;8.70;98.00;;;;;;5035049;28;20465;-70
2023/09/24 04:40:14;;;;;;;3.77;2.10;;;8.80;98.00;;;;;;5035068;28;20455;-72
2023/09/24 04:42:42;;;;;;;3.30;2.03;;;8.90;98.00;;;;;;5035011;28;20516;-73
2023/09/24 04:45:11;;;;;;;4.17;2.50;;;9.10;98.00;;;;;;5035081;28;20492;-71
2023/09/24 04:47:38;;;;;;;6.63;3.10;;;9.20;98.00;;;;;;5033766;28;20443;-71
2023/09/24 04:50:07;;;;;;;4.00;2.90;;;9.20;98.00;;;;;;5034716;28;20495;-71
2023/09/24 04:52:34;;;;;;;5.33;2.60;;;9.10;98.00;;;;;;5034937;28;20454;-71
2023/09/24 04:55:02;;;;;;;3.47;2.53;;;9.30;98.00;;;;;;5034497;28;20467;-72
2023/09/24 04:57:29;;;;;;;4.83;2.57;;;9.40;98.00;;;;;;5034424;28;20454;-71
2023/09/24 04:59:57;;;;;;;6.33;2.90;;;9.40;98.00;;;;;;5034320;28;20462;-71
2023/09/24 05:02:25;;;;;;;4.73;2.77;;;9.40;98.00;;;;;;5034591;28;20506;-72
2023/09/24 05:04:54;;;;;;;5.03;2.57;;;9.20;98.00;;;;;;5034240;28;20493;-71
2023/09/24 05:07:21;;;;;;;9.53;2.73;;;9.20;98.00;;;;;;5033137;28;20443;-71
2023/09/24 05:09:48;;;;;;;4.40;2.70;;;9.10;98.00;;;;;;5034119;28;20447;-71
2023/09/24 05:12:15;;;;;;;5.93;2.77;;;9.00;98.00;;;;;;5034449;28;20461;-71
2023/09/24 05:14:42;;;;;;;3.80;2.60;;;8.90;98.00;;;;;;5034127;28;20481;-71
2023/09/24 05:17:09;;;;;;;3.90;2.60;;;8.90;98.00;;;;;;5034103;28;20501;-73
2023/09/24 05:19:38;;;;;;;4.73;2.73;;;9.20;98.00;;;;;;5033761;28;20466;-71
2023/09/24 05:22:05;;;;;;;7.90;3.33;;;9.00;98.00;;;;;;5034190;28;20458;-72
2023/09/24 05:24:32;;;;;;;3.93;2.60;;;8.90;98.00;;;;;;5033536;28;20516;-71
2023/09/24 05:26:59;;;;;;;5.97;3.23;;;8.80;98.00;;;;;;5033678;28;20454;-70
2023/09/24 05:29:29;;;;;;;3.20;2.40;;;8.70;98.00;;;;;;5033707;28;20477;-71
2023/09/24 05:31:56;;;;;;;4.00;2.90;;;8.80;98.00;;;;;;5033590;28;20956;-71
2023/09/24 05:34:23;;;;;;;5.00;2.93;;;8.70;98.00;;;;;;5033560;28;20812;-71
2023/09/24 05:36:52;;;;;;;6.30;3.20;;;8.70;98.00;;;;;;5033325;28;20461;-70
2023/09/24 05:39:19;;;;;;;6.27;3.17;;;8.60;98.00;;;;;;5033587;28;20480;-70
2023/09/24 05:41:47;;;;;;;12.63;3.50;;;8.60;98.00;;;;;;5033540;28;20451;-71
2023/09/24 05:44:16;;;;;;;8.27;3.00;;;8.80;98.00;;;;;;5033493;28;20790;-71
2023/09/24 05:46:43;;;;;;;5.57;3.10;;;8.70;98.00;;;;;;5033637;28;20448;-69
2023/09/24 05:49:10;;;;;;;6.50;3.47;;;8.80;98.00;;;;;;5033720;28;20454;-77
2023/09/24 05:51:37;;;;;;;5.07;2.87;;;9.00;98.00;;;;;;5032650;28;20458;-77
2023/09/24 05:54:07;;;;;;;6.50;3.07;;;9.10;98.00;;;;;;5032574;28;20451;-77
2023/09/24 05:56:34;;;;;;;3.97;2.80;;;9.20;98.00;;;;;;5034011;28;20463;-77
2023/09/24 05:59:01;;;;;;;4.83;2.77;;;9.30;98.00;;;;;;5034709;28;20536;-77
2023/09/24 06:01:28;;;;;;;5.77;2.73;;;9.30;98.00;;;;;;5033152;28;20463;-76
2023/09/24 06:03:55;;;;;;;5.50;2.80;;;9.40;98.00;;;;;;5032746;28;20454;-76
2023/09/24 06:06:22;;;;;;;3.40;2.27;;;9.60;98.00;;;;;;5032747;28;20892;-76
2023/09/24 06:08:49;;;;;;;4.17;2.23;;;9.60;98.00;;;;;;5032212;28;20566;-76
2023/09/24 06:11:17;;;;;;;4.40;2.60;;;9.50;98.00;;;;;;5032369;28;20457;-75
2023/09/24 06:13:44;;;;;;;4.93;2.40;;;9.70;98.00;;;;;;5033284;28;20459;-76
2023/09/24 06:16:12;;;;;;;4.07;2.50;;;9.70;98.00;;;;;;5033496;28;20837;-75
2023/09/24 06:18:39;;;;;;;4.90;2.77;;;9.70;98.00;;;;;;5033231;28;20933;-76
2023/09/24 06:21:07;;;;;;;4.90;3.17;;;9.90;98.00;;;;;;5033323;28;20449;-76
2023/09/24 06:23:34;;;;;;;4.57;2.70;;;9.90;98.00;;;;;;5033218;28;20968;-76
2023/09/24 06:26:03;;;;;;;5.67;3.10;;;9.80;98.00;;;;;;5032431;28;20891;-77
2023/09/24 06:28:31;;;;;;;8.60;3.23;;;9.80;98.00;;;;;;5033106;28;20452;-76
2023/09/24 06:31:02;;;;;;;5.57;3.20;;;9.70;98.00;;;;;;5032700;28;20470;-77
2023/09/24 06:33:29;;;;;;;4.00;2.70;;;9.90;98.00;;;;;;5032999;28;20457;-77
2023/09/24 06:35:56;;;;;;;6.43;2.87;;;10.20;98.00;;;;;;5032655;28;20457;-76
2023/09/24 06:38:23;;;;;;;6.47;2.97;;;10.10;98.00;;;;;;5032743;28;20541;-77
2023/09/24 06:40:57;;;;;;;6.83;3.00;;;10.00;98.00;;;;;;5032639;28;20459;-77
2023/09/24 06:43:26;;;;;;;6.90;3.30;;;10.10;98.00;;;;;;5032870;28;20547;-77
2023/09/24 06:45:55;;;;;;;5.30;3.43;;;10.20;98.00;;;;;;5032246;28;21008;-77
2023/09/24 06:48:22;;;;;;;4.33;3.00;;;10.20;98.00;;;;;;5032540;28;20450;-77
2023/09/24 06:50:49;;;;;;;4.10;2.60;;;10.30;98.00;;;;;;5032740;28;20454;-76
2023/09/24 06:53:16;;;;;;;8.23;3.50;;;10.50;98.00;;;;;;5033046;28;20456;-76
2023/09/24 06:55:45;;;;;;;5.50;3.27;;;10.60;98.00;;;;;;5033521;28;20450;-76
2023/09/24 06:58:13;;;;;;;4.27;2.77;;;10.60;98.00;;;;;;5032460;28;20463;-77
2023/09/24 07:00:40;;;;;;;5.30;3.13;;;10.70;98.00;;;;;;5032141;28;20455;-77
2023/09/24 07:03:09;;;;;;;4.67;3.03;;;10.60;98.00;;;;;;5032424;28;20451;-77
2023/09/24 07:05:37;;;;;;;7.03;3.20;;;10.60;98.00;;;;;;5031956;28;20487;-77
2023/09/24 07:08:05;;;;;;;6.33;3.40;;;10.70;98.00;;;;;;5032127;28;20545;-77
2023/09/24 07:10:32;;;;;;;6.27;3.13;;;10.60;98.00;;;;;;5032093;28;20455;-76
2023/09/24 07:12:59;;;;;;;4.27;2.90;;;10.70;98.00;;;;;;5032201;28;20463;-76
2023/09/24 07:15:26;;;;;;;5.80;3.10;;;10.80;98.00;;;;;;5032081;28;20855;-77
2023/09/24 07:17:54;;;;;;;6.43;3.00;;;10.80;98.00;;;;;;5031996;28;20451;-77
2023/09/24 07:20:23;;;;;;;9.30;3.93;;;10.80;98.00;;;;;;5030701;28;20458;-77
2023/09/24 07:22:50;;;;;;;6.30;3.33;;;10.80;98.00;;;;;;5031741;28;20464;-77
2023/09/24 07:25:17;;;;;;;8.60;3.67;;;10.90;98.00;;;;;;5031402;28;20487;-77
2023/09/24 07:27:44;;;;;;;4.73;3.47;;;11.00;98.00;;;;;;5031959;28;20505;-76
2023/09/24 07:30:12;;;;;;;5.53;3.43;;;11.00;98.00;;;;;;5032058;28;20449;-76
2023/09/24 07:32:39;;;;;;;6.20;3.57;;;11.20;98.00;;;;;;5031972;28;20453;-76
2023/09/24 07:35:09;;;;;;;5.63;3.20;;;11.30;98.00;;;;;;5030858;28;20829;-77
2023/09/24 07:37:39;;;;;;;6.13;3.40;;;11.40;98.00;;;;;;5031775;28;20458;-76
2023/09/24 07:40:08;;;;;;;4.70;3.00;;;11.30;98.00;;;;;;5031698;28;20521;-77
2023/09/24 07:42:36;;;;;;;4.80;3.20;;;11.20;98.00;;;;;;5030780;28;20454;-77
2023/09/24 07:45:04;;;;;;;5.20;3.30;;;11.30;98.00;;;;;;5031773;28;20552;-77
2023/09/24 07:47:31;;;;;;;6.20;3.30;;;11.40;98.00;;;;;;5030637;28;20478;-77
2023/09/24 07:49:58;;;;;;;5.90;2.93;;;11.60;98.00;;;;;;5031655;28;20929;-77
2023/09/24 07:52:25;;;;;;;9.03;3.17;;;11.70;98.00;;;;;;5032036;28;20465;-77
2023/09/24 07:54:54;;;;;;;6.47;3.40;;;11.80;98.00;;;;;;5031850;28;20462;-76
2023/09/24 07:57:21;;;;;;;7.47;3.30;;;12.00;98.00;;;;;;5032178;28;20451;-77
2023/09/24 07:59:48;;;;;;;5.53;2.80;;;12.10;98.00;;;;;;5031846;28;20958;-77
2023/09/24 08:02:15;;;;;;;8.90;3.47;;;12.20;98.00;;;;;;5032195;28;20456;-77
2023/09/24 08:04:42;;;;;;;4.57;3.07;;;12.40;98.00;;;;;;5030861;28;20941;-77
2023/09/24 08:07:09;;;;;;;4.90;3.03;;;12.70;98.00;;;;;;5032117;28;21024;-77
2023/09/24 08:09:38;;;;;;;5.13;2.80;;;12.90;98.00;;;;;;5031752;28;20487;-77
2023/09/24 08:12:07;;;;;;;7.13;3.47;;;12.90;98.00;;;;;;5032012;28;20492;-77
2023/09/24 08:14:34;;;;;;;6.80;3.00;;;13.10;98.00;;;;;;5031860;28;20496;-77
2023/09/24 08:17:02;;;;;;;6.57;3.67;;;13.20;98.00;;;;;;5031671;28;20444;-77
2023/09/24 08:19:30;;;;;;;5.67;3.00;;;13.30;98.00;;;;;;5030571;28;20451;-77
2023/09/24 08:21:57;;;;;;;7.03;3.03;;;13.40;98.00;;;;;;5031573;28;20444;-77
2023/09/24 08:24:25;;;;;;;6.17;3.10;;;13.70;98.00;;;;;;5031395;28;20463;-77
2023/09/24 08:26:52;;;;;;;4.87;2.87;;;13.70;98.00;;;;;;5031234;28;20478;-77
2023/09/24 08:29:21;;;;;;;5.13;3.37;;;13.90;98.00;;;;;;5030387;28;20520;-77
2023/09/24 08:31:48;;;;;;;5.97;3.43;;;14.10;98.00;;;;;;5031589;28;20454;-77
2023/09/24 08:34:15;;;;;;;5.33;2.80;;;14.20;98.00;;;;;;5031543;28;20461;-77
2023/09/24 08:36:43;;;;;;;5.20;2.80;;;14.40;98.00;;;;;;5035077;28;20797;-77
2023/09/24 08:39:11;;;;;;;6.80;3.20;;;14.50;98.00;;;;;;5035041;28;20859;-77
2023/09/24 08:41:44;;;;;;;4.90;3.20;;;14.70;98.00;;;;;;5035280;28;20965;-77
2023/09/24 08:44:15;;;;;;;7.37;2.87;;;14.80;98.00;;;;;;5035446;28;20674;-77
2023/09/24 08:46:47;;;;;;;4.23;2.93;;;15.00;98.00;;;;;;5034767;28;20489;-77
2023/09/24 08:49:14;;;;;;;3.90;2.70;;;15.10;98.00;;;;;;5035163;28;20965;-77
2023/09/24 08:51:43;;;;;;;5.77;3.23;;;15.30;98.00;;;;;;5034643;28;20458;-77
2023/09/24 08:54:11;;;;;;;7.10;3.23;;;15.50;98.00;;;;;;5034626;28;20459;-77
2023/09/24 08:56:38;;;;;;;3.70;2.80;;;15.60;98.00;;;;;;5034318;28;20457;-77
2023/09/24 08:59:06;;;;;;;5.80;3.20;;;15.70;98.00;;;;;;5034507;28;20456;-77
2023/09/24 09:01:33;;;;;;;5.40;2.63;;;15.90;98.00;;;;;;5033031;28;20451;-77
2023/09/24 09:04:02;;;;;;;4.40;2.90;;;15.90;98.00;;;;;;5034265;28;20447;-77
2023/09/24 09:06:33;;;;;;;4.60;2.80;;;16.10;98.00;;;;;;5034079;28;20482;-77
2023/09/24 09:09:00;;;;;;;4.33;3.00;;;16.20;98.00;;;;;;5034054;28;20874;-77
2023/09/24 09:11:38;;;;;;;5.23;3.40;;;16.30;98.00;;;;;;5034035;28;21026;-77
2023/09/24 09:14:08;;;;;;;4.10;2.83;;;16.60;98.00;;;;;;5034141;28;20494;-77
2023/09/24 09:16:55;;;;;;;4.20;2.77;;;16.70;98.00;;;;;;5033669;28;20739;-77
2023/09/24 09:19:23;;;;;;;8.23;2.67;;;17.00;98.00;;;;;;5033767;28;20500;-77
2023/09/24 09:21:50;;;;;;;3.27;2.23;;;17.20;98.00;;;;;;5033650;28;20844;-77
2023/09/24 09:24:22;;;;;;;8.93;2.70;;;17.30;98.00;;;;;;5033432;28;20956;-77
2023/09/24 09:26:54;;;;;;;6.43;2.87;;;17.50;98.00;;;;;;5032734;28;20498;-77
2023/09/24 09:29:23;;;;;;;3.83;2.60;;;17.50;98.00;;;;;;5033943;28;20549;-77
2023/09/24 09:31:52;;;;;;;5.87;2.70;;;17.70;98.00;;;;;;5032493;28;20501;-77
2023/09/24 09:34:20;;;;;;;5.50;2.83;;;17.90;98.00;;;;;;5031972;28;20450;-77
2023/09/24 09:36:51;;;;;;;4.93;2.60;;;18.10;98.00;;;;;;5033449;28;20971;-78
2023/09/24 09:39:18;;;;;;;3.87;2.20;;;18.20;98.00;;;;;;5033451;28;20516;-77
2023/09/24 09:41:51;;;;;;;3.73;2.23;;;18.40;98.00;;;;;;5033569;28;20458;-77
2023/09/24 09:44:25;;;;;;;3.00;2.23;;;18.60;98.00;;;;;;5033334;28;20467;-78
2023/09/24 09:47:00;;;;;;;3.87;2.20;;;18.80;98.00;;;;;;5032140;28;20493;-77
2023/09/24 09:49:29;;;;;;;3.10;2.33;;;18.90;98.00;;;;;;5033534;28;20481;-77
2023/09/24 09:52:02;;;;;;;3.23;2.17;;;19.00;98.00;;;;;;5033504;28;20451;-77
2023/09/24 09:54:34;;;;;;;3.53;2.27;;;19.20;98.00;;;;;;5033408;28;20467;-77
2023/09/24 09:57:03;;;;;;;3.27;2.17;;;19.40;98.00;;;;;;5033318;28;20478;-77
2023/09/24 09:59:33;;;;;;;4.10;2.40;;;19.60;98.00;;;;;;5033207;28;20453;-78
2023/09/24 10:02:01;;;;;;;5.40;2.60;;;19.90;98.00;;;;;;5033172;28;20944;-77
2023/09/24 10:04:30;;;;;;;3.77;2.20;;;20.10;98.00;;;;;;5033295;28;20451;-77
2023/09/24 10:06:59;;;;;;;3.70;2.50;;;20.30;98.00;;;;;;5031658;28;20474;-78
2023/09/24 10:09:35;;;;;;;4.93;2.30;;;20.40;98.00;;;;;;5032883;28;20455;-78
2023/09/24 10:12:07;;;;;;;2.67;1.90;;;20.60;98.00;;;;;;5033034;28;20602;-77
2023/09/24 10:14:35;;;;;;;2.50;1.93;;;20.60;98.00;;;;;;5032659;28;20903;-78
2023/09/24 10:17:20;;;;;;;3.23;2.17;;;20.80;98.00;;;;;;5032890;28;20459;-78
2023/09/24 10:19:49;;;;;;;4.13;2.00;;;21.00;98.00;;;;;;5032707;28;20463;-77
2023/09/24 10:22:29;;;;;;;2.83;2.10;;;21.00;98.00;;;;;;5032768;28;20487;-78
2023/09/24 10:24:56;;;;;;;2.90;2.20;;;21.00;98.00;;;;;;5032384;28;20466;-78
2023/09/24 10:27:30;;;;;;;2.60;2.00;;;21.00;98.00;;;;;;5032408;28;20490;-77
2023/09/24 10:30:03;;;;;;;5.77;2.30;;;21.10;98.00;;;;;;5032322;28;20458;-78
2023/09/24 10:32:52;;;;;;;4.37;2.17;;;21.30;98.00;;;;;;5032556;28;20492;-78
2023/09/24 10:35:20;;;;;;;3.73;2.30;;;21.50;98.00;;;;;;5032427;28;20477;-78
2023/09/24 10:38:12;;;;;;;3.10;2.03;;;21.70;98.00;;;;;;5032461;28;20883;-77
2023/09/24 10:41:06;;;;;;;3.13;2.20;;;22.00;98.00;;;;;;5017319;28;20466;-78
2023/09/24 10:43:33;;;;;;;5.00;2.30;;;22.10;97.70;;;;;;5032187;28;20508;-77
2023/09/24 10:46:28;;;;;;;3.30;2.23;;;22.10;96.30;;;;;;5031972;28;20493;-78
2023/09/24 10:48:56;;;;;;;3.37;2.20;;;22.20;97.10;;;;;;5032289;28;20455;-78
2023/09/24 10:51:24;;;;;;;4.60;2.20;;;22.40;96.20;;;;;;5032175;28;20453;-77
2023/09/24 10:54:11;;;;;;;3.37;2.53;;;22.50;96.80;;;;;;5032145;28;21597;-77
2023/09/24 10:56:38;;;;;;;3.83;2.40;;;22.60;98.00;;;;;;5031132;28;20458;-78
2023/09/24 10:59:05;;;;;;;2.60;1.93;;;22.90;97.90;;;;;;5032243;28;20443;-78
2023/09/24 11:01:33;;;;;;;2.97;2.00;;;23.10;96.70;;;;;;5031631;28;20459;-77
2023/09/24 11:04:00;;;;;;;3.20;2.07;;;23.30;95.20;;;;;;5032116;28;20461;-77
2023/09/24 11:06:31;;;;;;;2.67;1.90;;;23.50;93.30;;;;;;5031981;28;20526;-77
2023/09/24 11:09:18;;;;;;;2.00;1.80;;;23.70;92.40;;;;;;5031748;28;20945;-77
2023/09/24 11:11:45;;;;;;;3.60;2.27;;;23.90;93.40;;;;;;5031721;28;20508;-77
2023/09/24 11:14:22;;;;;;;4.10;2.10;;;24.10;91.00;;;;;;5031501;28;20455;-77
2023/09/24 11:16:50;;;;;;;2.13;1.90;;;24.20;90.90;;;;;;5031727;28;20468;-77
2023/09/24 11:19:44;;;;;;;2.27;1.90;;;24.40;89.70;;;;;;5031612;28;20501;-78
2023/09/24 11:22:21;;;;;;;3.50;2.10;;;24.70;88.40;;;;;;5031751;28;20537;-77
2023/09/24 11:25:05;;;;;;;3.47;2.13;;;24.90;85.90;;;;;;5030260;28;20462;-79
2023/09/24 11:27:44;;;;;;;3.30;2.03;;;25.20;87.00;;;;;;5031588;28;20518;-77
2023/09/24 11:30:14;;;;;;;2.77;1.93;;;25.30;85.20;;;;;;5031679;28;20984;-78
2023/09/24 11:32:47;;;;;;;2.63;1.90;;;25.60;85.80;;;;;;5030581;28;20462;-77
2023/09/24 11:35:15;;;;;;;2.33;1.70;;;25.80;83.50;;;;;;5031646;28;20455;-77
2023/09/24 11:37:50;;;;;;;4.00;2.00;;;25.80;82.00;;;;;;5031364;28;20463;-77
2023/09/24 11:40:26;;;;;;;2.60;1.90;;;25.90;81.40;;;;;;5031437;28;20465;-77
2023/09/24 11:42:55;;;;;;;2.27;1.90;;;26.20;80.80;;;;;;5031315;28;20466;-78
2023/09/24 11:45:40;;;;;;;2.60;1.90;;;26.30;78.70;;;;;;5031394;28;20487;-78
2023/09/24 11:48:10;;;;;;;2.03;1.90;;;26.10;80.40;;;;;;5031169;28;20490;-77
2023/09/24 11:50:38;;;;;;;2.70;2.00;;;25.70;81.60;;;;;;5031217;28;20462;-77
2023/09/24 11:53:06;;;;;;;2.70;1.97;;;25.90;79.50;;;;;;5031420;28;20459;-79
2023/09/24 11:55:36;;;;;;;3.50;2.20;;;26.10;80.30;;;;;;5031182;28;20459;-76
2023/09/24 11:58:05;;;;;;;2.30;1.80;;;26.40;78.90;;;;;;5031029;28;20446;-77
2023/09/24 12:00:33;;;;;;;3.03;2.03;;;26.50;79.00;;;;;;5031233;28;20508;-77
2023/09/24 12:03:01;;;;;;;2.93;2.00;;;26.60;79.90;;;;;;5030042;28;20972;-77
2023/09/24 12:05:28;;;;;;;2.57;1.87;;;26.80;80.80;;;;;;5029708;28;20447;-78
2023/09/24 12:07:56;;;;;;;6.53;1.90;;;26.90;79.30;;;;;;5031028;28;20482;-79
2023/09/24 12:10:24;;;;;;;2.90;1.90;;;27.10;79.40;;;;;;5032658;28;20979;-78
2023/09/24 12:12:52;;;;;;;2.93;1.93;;;27.10;79.50;;;;;;5035048;28;20975;-77
2023/09/24 12:15:23;;;;;;;2.73;2.10;;;27.00;77.80;;;;;;5033557;28;21044;-78
2023/09/24 12:17:55;;;;;;;3.87;2.00;;;26.80;77.60;;;;;;5034971;28;20529;-77
2023/09/24 12:20:22;;;;;;;2.13;1.73;;;26.80;77.20;;;;;;5034740;28;20492;-77
2023/09/24 12:22:49;;;;;;;3.00;2.20;;;26.90;75.40;;;;;;5034713;28;20462;-77
2023/09/24 12:25:16;;;;;;;4.13;2.00;;;26.60;77.70;;;;;;5034791;28;20468;-77
2023/09/24 12:27:43;;;;;;;2.90;2.27;;;26.70;79.70;;;;;;5034631;28;20490;-77
2023/09/24 12:30:12;;;;;;;4.77;2.17;;;27.00;79.30;;;;;;5034754;28;20459;-77
2023/09/24 12:32:40;;;;;;;3.10;1.87;;;27.20;72.50;;;;;;5034606;28;20994;-78
2023/09/24 12:35:09;;;;;;;2.33;1.70;;;27.40;72.70;;;;;;5034566;28;20457;-77
2023/09/24 12:37:36;;;;;;;3.00;2.00;;;27.50;70.00;;;;;;5034745;28;20450;-77
2023/09/24 12:40:19;;;;;;;2.60;1.93;;;27.50;73.00;;;;;;5034840;28;20461;-78
2023/09/24 12:42:46;;;;;;;2.40;1.73;;;27.60;73.50;;;;;;5034607;28;20454;-78
2023/09/24 12:45:16;;;;;;;2.50;1.83;;;27.50;73.50;;;;;;5034755;28;20975;-79
2023/09/24 12:47:45;;;;;;;3.30;2.03;;;27.50;72.80;;;;;;5034515;28;20536;-76
2023/09/24 12:50:13;;;;;;;2.40;2.00;;;27.40;74.10;;;;;;5034826;28;20455;-76
2023/09/24 12:52:44;;;;;;;2.40;1.90;;;27.50;72.10;;;;;;5034769;28;20450;-77
2023/09/24 12:55:12;;;;;;;3.67;2.10;;;27.40;73.40;;;;;;5034391;28;20458;-77
2023/09/24 12:57:40;;;;;;;3.67;2.00;;;27.50;70.80;;;;;;5034400;28;20457;-77
2023/09/24 13:00:10;;;;;;;2.50;1.90;;;27.70;68.60;;;;;;5033181;28;20450;-77
2023/09/24 13:02:41;;;;;;;11.13;4.30;;;27.90;68.50;;;;;;5034837;28;20470;-78